sensor_id;sensor_type;location;lat;lon;timestamp;P1;durP1;ratioP1;P2;durP2;ratioP2
28958;SDS011;16066;0.000;0.000;2023-11-21T06:32:33;19.00;;;12.67;;
28958;SDS011;16066;0.000;0.000;2023-11-21T06:34:59;15.43;;;10.30;;
28958;SDS011;16066;0.000;0.000;2023-11-21T06:37:26;18.60;;;11.57;;
28958;SDS011;16066;0.000;0.000;2023-11-21T06:39:52;20.43;;;12.00;;
28958;SDS011;16066;0.000;0.000;2023-11-21T06:42:18;15.30;;;11.33;;
28958;SDS011;16066;0.000;0.000;2023-11-21T06:44:47;18.60;;;11.77;;
28958;SDS011;16066;0.000;0.000;2023-11-21T06:47:13;17.10;;;12.57;;
28958;SDS011;16066;0.000;0.000;2023-11-21T06:49:41;18.33;;;12.70;;
28958;SDS011;16066;0.000;0.000;2023-11-21T06:52:07;15.57;;;11.60;;
28958;SDS011;16066;0.000;0.000;2023-11-21T06:54:33;20.30;;;12.83;;
28958;SDS011;16066;0.000;0.000;2023-11-21T06:56:59;19.67;;;12.83;;
28958;SDS011;16066;0.000;0.000;2023-11-21T06:59:25;21.43;;;11.67;;
28958;SDS011;16066;0.000;0.000;2023-11-21T07:01:51;17.10;;;11.77;;
28958;SDS011;16066;0.000;0.000;2023-11-21T07:04:16;19.13;;;11.77;;
28958;SDS011;16066;0.000;0.000;2023-11-21T07:06:43;17.53;;;11.90;;
28958;SDS011;16066;0.000;0.000;2023-11-21T07:09:09;18.43;;;10.93;;
28958;SDS011;16066;0.000;0.000;2023-11-21T07:11:36;18.70;;;11.37;;
28958;SDS011;16066;0.000;0.000;2023-11-21T07:14:03;19.17;;;12.00;;
28958;SDS011;16066;0.000;0.000;2023-11-21T07:16:33;24.00;;;14.30;;
28958;SDS011;16066;0.000;0.000;2023-11-21T07:19:03;18.30;;;11.20;;
28958;SDS011;16066;0.000;0.000;2023-11-21T07:21:31;18.23;;;11.47;;
28958;SDS011;16066;0.000;0.000;2023-11-21T07:24:00;16.67;;;11.77;;
28958;SDS011;16066;0.000;0.000;2023-11-21T07:26:27;21.20;;;13.30;;
28958;SDS011;16066;0.000;0.000;2023-11-21T07:28:53;18.47;;;11.33;;
28958;SDS011;16066;0.000;0.000;2023-11-21T07:31:19;16.23;;;10.80;;
28958;SDS011;16066;0.000;0.000;2023-11-21T07:33:45;18.13;;;11.37;;
28958;SDS011;16066;0.000;0.000;2023-11-21T07:36:14;19.90;;;11.33;;
28958;SDS011;16066;0.000;0.000;2023-11-21T07:38:41;19.20;;;12.30;;
28958;SDS011;16066;0.000;0.000;2023-11-21T07:41:07;16.80;;;10.67;;
28958;SDS011;16066;0.000;0.000;2023-11-21T07:43:35;21.70;;;12.70;;
28958;SDS011;16066;0.000;0.000;2023-11-21T07:46:01;18.03;;;12.23;;
28958;SDS011;16066;0.000;0.000;2023-11-21T07:48:31;20.70;;;12.83;;
28958;SDS011;16066;0.000;0.000;2023-11-21T07:50:58;21.03;;;12.73;;
28958;SDS011;16066;0.000;0.000;2023-11-21T07:53:24;17.67;;;12.13;;
28958;SDS011;16066;0.000;0.000;2023-11-21T07:55:54;21.27;;;12.50;;
28958;SDS011;16066;0.000;0.000;2023-11-21T07:58:20;17.30;;;11.50;;
28958;SDS011;16066;0.000;0.000;2023-11-21T08:00:46;21.73;;;12.13;;
28958;SDS011;16066;0.000;0.000;2023-11-21T08:03:13;20.30;;;12.40;;
28958;SDS011;16066;0.000;0.000;2023-11-21T08:05:38;17.90;;;12.43;;
28958;SDS011;16066;0.000;0.000;2023-11-21T08:08:04;19.90;;;12.43;;
28958;SDS011;16066;0.000;0.000;2023-11-21T08:10:30;37.00;;;13.77;;
28958;SDS011;16066;0.000;0.000;2023-11-21T08:12:55;16.00;;;10.80;;
28958;SDS011;16066;0.000;0.000;2023-11-21T08:15:21;23.43;;;13.50;;
28958;SDS011;16066;0.000;0.000;2023-11-21T08:17:47;19.63;;;12.13;;
28958;SDS011;16066;0.000;0.000;2023-11-21T08:20:13;19.43;;;12.43;;
28958;SDS011;16066;0.000;0.000;2023-11-21T08:22:42;18.33;;;12.90;;
28958;SDS011;16066;0.000;0.000;2023-11-21T08:25:08;25.33;;;13.60;;
28958;SDS011;16066;0.000;0.000;2023-11-21T08:27:34;20.30;;;12.80;;
28958;SDS011;16066;0.000;0.000;2023-11-21T08:30:00;25.53;;;13.50;;
28958;SDS011;16066;0.000;0.000;2023-11-21T08:32:28;21.67;;;12.70;;
28958;SDS011;16066;0.000;0.000;2023-11-21T08:34:58;23.83;;;13.13;;
28958;SDS011;16066;0.000;0.000;2023-11-21T08:37:24;22.63;;;13.97;;
28958;SDS011;16066;0.000;0.000;2023-11-21T08:39:52;21.97;;;13.50;;
28958;SDS011;16066;0.000;0.000;2023-11-21T08:42:18;27.03;;;14.50;;
28958;SDS011;16066;0.000;0.000;2023-11-21T08:44:44;25.00;;;12.60;;
28958;SDS011;16066;0.000;0.000;2023-11-21T08:47:09;22.17;;;13.00;;
28958;SDS011;16066;0.000;0.000;2023-11-21T08:49:35;24.10;;;14.70;;
28958;SDS011;16066;0.000;0.000;2023-11-21T08:52:01;21.17;;;12.97;;
28958;SDS011;16066;0.000;0.000;2023-11-21T08:54:26;28.27;;;14.00;;
28958;SDS011;16066;0.000;0.000;2023-11-21T08:56:53;25.60;;;14.17;;
28958;SDS011;16066;0.000;0.000;2023-11-21T08:59:19;25.33;;;14.50;;
28958;SDS011;16066;0.000;0.000;2023-11-21T09:01:45;31.90;;;15.40;;
28958;SDS011;16066;0.000;0.000;2023-11-21T09:04:11;25.10;;;14.93;;
28958;SDS011;16066;0.000;0.000;2023-11-21T09:06:37;31.00;;;14.50;;
28958;SDS011;16066;0.000;0.000;2023-11-21T09:09:04;21.83;;;13.57;;
28958;SDS011;16066;0.000;0.000;2023-11-21T09:11:31;26.40;;;15.00;;
28958;SDS011;16066;0.000;0.000;2023-11-21T09:14:00;31.90;;;15.97;;
28958;SDS011;16066;0.000;0.000;2023-11-21T09:16:26;25.77;;;14.53;;
28958;SDS011;16066;0.000;0.000;2023-11-21T09:18:52;26.17;;;14.43;;
28958;SDS011;16066;0.000;0.000;2023-11-21T09:21:17;23.90;;;13.20;;
28958;SDS011;16066;0.000;0.000;2023-11-21T09:23:46;23.50;;;14.17;;
28958;SDS011;16066;0.000;0.000;2023-11-21T09:26:13;25.00;;;14.90;;
28958;SDS011;16066;0.000;0.000;2023-11-21T09:28:41;23.77;;;12.53;;
28958;SDS011;16066;0.000;0.000;2023-11-21T09:31:11;21.70;;;14.13;;
28958;SDS011;16066;0.000;0.000;2023-11-21T09:33:37;28.60;;;14.00;;
28958;SDS011;16066;0.000;0.000;2023-11-21T09:36:03;25.63;;;15.57;;
28958;SDS011;16066;0.000;0.000;2023-11-21T09:38:29;28.73;;;15.47;;
28958;SDS011;16066;0.000;0.000;2023-11-21T09:40:55;26.20;;;14.33;;
28958;SDS011;16066;0.000;0.000;2023-11-21T09:43:23;28.93;;;14.50;;
28958;SDS011;16066;0.000;0.000;2023-11-21T09:45:54;27.60;;;15.90;;
28958;SDS011;16066;0.000;0.000;2023-11-21T09:48:24;25.13;;;14.20;;
28958;SDS011;16066;0.000;0.000;2023-11-21T09:50:51;26.30;;;15.40;;
28958;SDS011;16066;0.000;0.000;2023-11-21T09:53:19;22.10;;;13.00;;
28958;SDS011;16066;0.000;0.000;2023-11-21T09:55:46;24.07;;;14.33;;
28958;SDS011;16066;0.000;0.000;2023-11-21T09:58:14;24.70;;;14.30;;
28958;SDS011;16066;0.000;0.000;2023-11-21T10:00:40;20.30;;;12.87;;
28958;SDS011;16066;0.000;0.000;2023-11-21T10:03:07;30.67;;;13.43;;
28958;SDS011;16066;0.000;0.000;2023-11-21T10:05:34;23.63;;;14.20;;
28958;SDS011;16066;0.000;0.000;2023-11-21T10:08:00;27.03;;;12.83;;
28958;SDS011;16066;0.000;0.000;2023-11-21T10:10:26;24.43;;;14.37;;
28958;SDS011;16066;0.000;0.000;2023-11-21T10:12:57;20.77;;;12.57;;
28958;SDS011;16066;0.000;0.000;2023-11-21T10:15:26;28.63;;;13.60;;
28958;SDS011;16066;0.000;0.000;2023-11-21T10:17:52;24.20;;;12.77;;
28958;SDS011;16066;0.000;0.000;2023-11-21T10:20:19;25.97;;;14.27;;
28958;SDS011;16066;0.000;0.000;2023-11-21T10:22:45;23.67;;;12.40;;
28958;SDS011;16066;0.000;0.000;2023-11-21T10:25:11;21.97;;;13.03;;
28958;SDS011;16066;0.000;0.000;2023-11-21T10:27:39;20.20;;;11.90;;
28958;SDS011;16066;0.000;0.000;2023-11-21T10:30:09;20.60;;;11.80;;
28958;SDS011;16066;0.000;0.000;2023-11-21T10:32:38;19.00;;;11.13;;
28958;SDS011;16066;0.000;0.000;2023-11-21T10:35:05;21.47;;;12.37;;
28958;SDS011;16066;0.000;0.000;2023-11-21T10:37:35;24.97;;;14.20;;
28958;SDS011;16066;0.000;0.000;2023-11-21T10:40:05;17.57;;;11.30;;
28958;SDS011;16066;0.000;0.000;2023-11-21T10:42:32;20.63;;;12.40;;
28958;SDS011;16066;0.000;0.000;2023-11-21T10:44:58;21.50;;;10.50;;
28958;SDS011;16066;0.000;0.000;2023-11-21T10:47:25;22.27;;;10.80;;
28958;SDS011;16066;0.000;0.000;2023-11-21T10:49:51;22.60;;;11.50;;
28958;SDS011;16066;0.000;0.000;2023-11-21T10:52:18;19.17;;;10.97;;
28958;SDS011;16066;0.000;0.000;2023-11-21T10:54:45;22.63;;;11.73;;
28958;SDS011;16066;0.000;0.000;2023-11-21T10:57:11;19.67;;;9.80;;
28958;SDS011;16066;0.000;0.000;2023-11-21T10:59:42;20.23;;;10.10;;
28958;SDS011;16066;0.000;0.000;2023-11-21T11:02:18;22.03;;;10.40;;
28958;SDS011;16066;0.000;0.000;2023-11-21T11:04:50;18.33;;;9.53;;
28958;SDS011;16066;0.000;0.000;2023-11-21T11:07:17;17.50;;;10.97;;
28958;SDS011;16066;0.000;0.000;2023-11-21T11:09:43;17.40;;;9.83;;
28958;SDS011;16066;0.000;0.000;2023-11-21T11:12:10;17.60;;;9.77;;
28958;SDS011;16066;0.000;0.000;2023-11-21T11:14:38;21.90;;;9.77;;
28958;SDS011;16066;0.000;0.000;2023-11-21T11:17:06;17.80;;;9.80;;
28958;SDS011;16066;0.000;0.000;2023-11-21T11:19:34;17.80;;;10.13;;
28958;SDS011;16066;0.000;0.000;2023-11-21T11:22:08;21.63;;;10.67;;
28958;SDS011;16066;0.000;0.000;2023-11-21T11:27:48;19.83;;;11.00;;
28958;SDS011;16066;0.000;0.000;2023-11-21T11:33:25;18.63;;;8.63;;
28958;SDS011;16066;0.000;0.000;2023-11-21T11:36:17;15.13;;;8.47;;
28958;SDS011;16066;0.000;0.000;2023-11-21T11:42:14;14.43;;;9.27;;
28958;SDS011;16066;0.000;0.000;2023-11-21T11:47:23;20.77;;;10.03;;
28958;SDS011;16066;0.000;0.000;2023-11-21T11:50:11;18.60;;;10.00;;
28958;SDS011;16066;0.000;0.000;2023-11-21T11:52:48;18.10;;;9.87;;
28958;SDS011;16066;0.000;0.000;2023-11-21T11:55:17;16.73;;;9.30;;
28958;SDS011;16066;0.000;0.000;2023-11-21T11:57:45;20.03;;;9.17;;
28958;SDS011;16066;0.000;0.000;2023-11-21T12:02:56;16.50;;;9.50;;
28958;SDS011;16066;0.000;0.000;2023-11-21T12:05:23;19.87;;;10.93;;
28958;SDS011;16066;0.000;0.000;2023-11-21T12:07:56;18.20;;;10.10;;
28958;SDS011;16066;0.000;0.000;2023-11-21T12:10:29;16.53;;;9.57;;
28958;SDS011;16066;0.000;0.000;2023-11-21T12:15:23;18.47;;;9.90;;
28958;SDS011;16066;0.000;0.000;2023-11-21T12:17:50;14.90;;;10.00;;
28958;SDS011;16066;0.000;0.000;2023-11-21T12:20:19;20.43;;;10.10;;
28958;SDS011;16066;0.000;0.000;2023-11-21T12:22:47;15.70;;;10.40;;
28958;SDS011;16066;0.000;0.000;2023-11-21T12:25:17;15.50;;;9.77;;
28958;SDS011;16066;0.000;0.000;2023-11-21T12:27:47;17.63;;;10.87;;
28958;SDS011;16066;0.000;0.000;2023-11-21T12:30:17;21.10;;;10.90;;
28958;SDS011;16066;0.000;0.000;2023-11-21T12:32:44;20.43;;;11.20;;
28958;SDS011;16066;0.000;0.000;2023-11-21T12:35:12;25.57;;;12.00;;
28958;SDS011;16066;0.000;0.000;2023-11-21T12:37:38;31.17;;;12.87;;
28958;SDS011;16066;0.000;0.000;2023-11-21T12:40:05;22.57;;;11.40;;
28958;SDS011;16066;0.000;0.000;2023-11-21T12:42:33;31.07;;;12.07;;
28958;SDS011;16066;0.000;0.000;2023-11-21T12:45:09;25.80;;;12.40;;
28958;SDS011;16066;0.000;0.000;2023-11-21T12:47:43;25.00;;;13.03;;
28958;SDS011;16066;0.000;0.000;2023-11-21T12:50:09;30.60;;;11.90;;
28958;SDS011;16066;0.000;0.000;2023-11-21T12:52:42;21.43;;;11.43;;
28958;SDS011;16066;0.000;0.000;2023-11-21T12:55:13;20.37;;;12.07;;
28958;SDS011;16066;0.000;0.000;2023-11-21T12:57:41;21.30;;;12.50;;
28958;SDS011;16066;0.000;0.000;2023-11-21T13:00:08;21.07;;;11.90;;
28958;SDS011;16066;0.000;0.000;2023-11-21T13:02:38;27.10;;;12.70;;
28958;SDS011;16066;0.000;0.000;2023-11-21T13:05:07;28.10;;;12.13;;
28958;SDS011;16066;0.000;0.000;2023-11-21T13:07:43;27.00;;;12.53;;
28958;SDS011;16066;0.000;0.000;2023-11-21T13:10:12;33.97;;;14.37;;
28958;SDS011;16066;0.000;0.000;2023-11-21T13:12:42;35.17;;;14.77;;
28958;SDS011;16066;0.000;0.000;2023-11-21T13:15:16;26.60;;;13.50;;
28958;SDS011;16066;0.000;0.000;2023-11-21T13:17:42;22.50;;;13.63;;
28958;SDS011;16066;0.000;0.000;2023-11-21T13:20:10;23.63;;;12.07;;
28958;SDS011;16066;0.000;0.000;2023-11-21T13:22:44;23.00;;;12.63;;
28958;SDS011;16066;0.000;0.000;2023-11-21T13:25:11;26.60;;;13.47;;
28958;SDS011;16066;0.000;0.000;2023-11-21T13:27:36;26.70;;;12.77;;
28958;SDS011;16066;0.000;0.000;2023-11-21T13:30:03;27.97;;;12.70;;
28958;SDS011;16066;0.000;0.000;2023-11-21T13:32:29;24.47;;;14.33;;
28958;SDS011;16066;0.000;0.000;2023-11-21T13:34:57;22.97;;;13.40;;
28958;SDS011;16066;0.000;0.000;2023-11-21T13:37:24;21.73;;;13.10;;
28958;SDS011;16066;0.000;0.000;2023-11-21T13:39:53;20.83;;;13.50;;
28958;SDS011;16066;0.000;0.000;2023-11-21T13:42:19;21.03;;;13.97;;
28958;SDS011;16066;0.000;0.000;2023-11-21T13:44:55;22.53;;;14.40;;
28958;SDS011;16066;0.000;0.000;2023-11-21T13:47:21;26.37;;;14.50;;
28958;SDS011;16066;0.000;0.000;2023-11-21T13:49:50;20.07;;;13.03;;
28958;SDS011;16066;0.000;0.000;2023-11-21T13:52:16;21.17;;;13.20;;
28958;SDS011;16066;0.000;0.000;2023-11-21T13:54:42;27.57;;;14.47;;
28958;SDS011;16066;0.000;0.000;2023-11-21T13:57:08;26.43;;;13.47;;
28958;SDS011;16066;0.000;0.000;2023-11-21T13:59:34;22.97;;;12.73;;
28958;SDS011;16066;0.000;0.000;2023-11-21T14:02:01;18.90;;;12.07;;
28958;SDS011;16066;0.000;0.000;2023-11-21T14:04:42;22.00;;;12.47;;
28958;SDS011;16066;0.000;0.000;2023-11-21T14:07:21;21.53;;;13.90;;
28958;SDS011;16066;0.000;0.000;2023-11-21T14:10:00;15.13;;;11.07;;
28958;SDS011;16066;0.000;0.000;2023-11-21T14:12:31;21.73;;;12.23;;
28958;SDS011;16066;0.000;0.000;2023-11-21T14:14:59;17.60;;;11.53;;
28958;SDS011;16066;0.000;0.000;2023-11-21T14:17:28;16.70;;;11.27;;
28958;SDS011;16066;0.000;0.000;2023-11-21T14:19:54;15.93;;;10.10;;
28958;SDS011;16066;0.000;0.000;2023-11-21T14:22:21;15.67;;;9.27;;
28958;SDS011;16066;0.000;0.000;2023-11-21T14:24:47;14.63;;;9.23;;
28958;SDS011;16066;0.000;0.000;2023-11-21T14:27:13;17.77;;;9.80;;
28958;SDS011;16066;0.000;0.000;2023-11-21T14:29:40;20.70;;;10.70;;
28958;SDS011;16066;0.000;0.000;2023-11-21T14:32:08;14.90;;;9.47;;
28958;SDS011;16066;0.000;0.000;2023-11-21T14:34:34;13.60;;;8.97;;
28958;SDS011;16066;0.000;0.000;2023-11-21T14:36:59;19.00;;;10.23;;
28958;SDS011;16066;0.000;0.000;2023-11-21T14:39:27;14.30;;;8.90;;
28958;SDS011;16066;0.000;0.000;2023-11-21T14:41:54;17.83;;;9.47;;
28958;SDS011;16066;0.000;0.000;2023-11-21T14:44:24;12.00;;;8.90;;
28958;SDS011;16066;0.000;0.000;2023-11-21T14:46:52;15.67;;;10.27;;
28958;SDS011;16066;0.000;0.000;2023-11-21T14:49:20;21.17;;;10.03;;
28958;SDS011;16066;0.000;0.000;2023-11-21T14:51:47;13.80;;;8.70;;
28958;SDS011;16066;0.000;0.000;2023-11-21T14:54:33;14.87;;;9.53;;
28958;SDS011;16066;0.000;0.000;2023-11-21T14:57:08;16.27;;;10.67;;
28958;SDS011;16066;0.000;0.000;2023-11-21T14:59:36;15.53;;;9.73;;
28958;SDS011;16066;0.000;0.000;2023-11-21T15:02:02;16.50;;;9.57;;
28958;SDS011;16066;0.000;0.000;2023-11-21T15:04:54;17.93;;;10.40;;
28958;SDS011;16066;0.000;0.000;2023-11-21T15:07:26;18.40;;;10.60;;
28958;SDS011;16066;0.000;0.000;2023-11-21T15:09:52;13.03;;;8.83;;
28958;SDS011;16066;0.000;0.000;2023-11-21T15:12:18;13.63;;;9.13;;
28958;SDS011;16066;0.000;0.000;2023-11-21T15:14:48;12.60;;;8.43;;
28958;SDS011;16066;0.000;0.000;2023-11-21T15:17:17;12.13;;;8.43;;
28958;SDS011;16066;0.000;0.000;2023-11-21T15:19:55;10.37;;;7.73;;
28958;SDS011;16066;0.000;0.000;2023-11-21T15:22:21;15.50;;;8.93;;
28958;SDS011;16066;0.000;0.000;2023-11-21T15:24:47;12.77;;;9.03;;
28958;SDS011;16066;0.000;0.000;2023-11-21T15:27:14;12.63;;;8.40;;
28958;SDS011;16066;0.000;0.000;2023-11-21T15:29:40;13.87;;;8.80;;
28958;SDS011;16066;0.000;0.000;2023-11-21T15:32:09;13.67;;;9.80;;
28958;SDS011;16066;0.000;0.000;2023-11-21T15:34:35;14.27;;;9.63;;
28958;SDS011;16066;0.000;0.000;2023-11-21T15:37:02;18.10;;;9.50;;
28958;SDS011;16066;0.000;0.000;2023-11-21T15:39:29;11.37;;;8.60;;
28958;SDS011;16066;0.000;0.000;2023-11-21T15:41:58;13.80;;;9.87;;
28958;SDS011;16066;0.000;0.000;2023-11-21T15:44:24;11.50;;;8.03;;
28958;SDS011;16066;0.000;0.000;2023-11-21T15:46:51;11.33;;;7.57;;
28958;SDS011;16066;0.000;0.000;2023-11-21T15:49:20;15.30;;;8.97;;
28958;SDS011;16066;0.000;0.000;2023-11-21T15:51:49;12.90;;;8.70;;
28958;SDS011;16066;0.000;0.000;2023-11-21T15:54:23;12.20;;;8.53;;
28958;SDS011;16066;0.000;0.000;2023-11-21T15:56:51;11.40;;;8.20;;
28958;SDS011;16066;0.000;0.000;2023-11-21T15:59:17;13.27;;;8.00;;
28958;SDS011;16066;0.000;0.000;2023-11-21T16:01:43;10.90;;;8.00;;
28958;SDS011;16066;0.000;0.000;2023-11-21T16:04:12;11.57;;;8.57;;
28958;SDS011;16066;0.000;0.000;2023-11-21T16:06:45;14.90;;;7.40;;
28958;SDS011;16066;0.000;0.000;2023-11-21T16:09:12;12.10;;;8.27;;
28958;SDS011;16066;0.000;0.000;2023-11-21T16:11:47;10.73;;;8.17;;
28958;SDS011;16066;0.000;0.000;2023-11-21T16:14:18;12.43;;;7.70;;
28958;SDS011;16066;0.000;0.000;2023-11-21T16:16:49;15.20;;;9.40;;
28958;SDS011;16066;0.000;0.000;2023-11-21T16:19:14;14.10;;;9.27;;
28958;SDS011;16066;0.000;0.000;2023-11-21T16:21:40;13.90;;;8.80;;
28958;SDS011;16066;0.000;0.000;2023-11-21T16:24:06;13.03;;;8.27;;
28958;SDS011;16066;0.000;0.000;2023-11-21T16:26:31;11.77;;;8.40;;
28958;SDS011;16066;0.000;0.000;2023-11-21T16:28:57;12.00;;;8.43;;
28958;SDS011;16066;0.000;0.000;2023-11-21T16:31:23;11.67;;;8.50;;
28958;SDS011;16066;0.000;0.000;2023-11-21T16:33:49;12.37;;;8.53;;
28958;SDS011;16066;0.000;0.000;2023-11-21T16:36:14;12.00;;;8.10;;
28958;SDS011;16066;0.000;0.000;2023-11-21T16:38:40;13.13;;;7.90;;
28958;SDS011;16066;0.000;0.000;2023-11-21T16:41:05;13.93;;;9.30;;
28958;SDS011;16066;0.000;0.000;2023-11-21T16:43:33;13.13;;;9.50;;
28958;SDS011;16066;0.000;0.000;2023-11-21T16:45:58;11.13;;;8.30;;
28958;SDS011;16066;0.000;0.000;2023-11-21T16:48:24;13.00;;;9.23;;
28958;SDS011;16066;0.000;0.000;2023-11-21T16:50:49;14.23;;;10.40;;
28958;SDS011;16066;0.000;0.000;2023-11-21T16:53:15;13.47;;;9.30;;
28958;SDS011;16066;0.000;0.000;2023-11-21T16:55:41;13.57;;;9.53;;
28958;SDS011;16066;0.000;0.000;2023-11-21T16:58:07;15.10;;;9.30;;
28958;SDS011;16066;0.000;0.000;2023-11-21T17:00:32;18.87;;;11.03;;
28958;SDS011;16066;0.000;0.000;2023-11-21T17:02:58;14.47;;;9.80;;
28958;SDS011;16066;0.000;0.000;2023-11-21T17:05:24;20.90;;;9.37;;
28958;SDS011;16066;0.000;0.000;2023-11-21T17:07:50;13.97;;;10.53;;
28958;SDS011;16066;0.000;0.000;2023-11-21T17:10:17;14.00;;;9.77;;
28958;SDS011;16066;0.000;0.000;2023-11-21T17:12:44;13.30;;;8.93;;
28958;SDS011;16066;0.000;0.000;2023-11-21T17:15:10;19.03;;;10.50;;
28958;SDS011;16066;0.000;0.000;2023-11-21T17:17:35;17.33;;;11.13;;
28958;SDS011;16066;0.000;0.000;2023-11-21T17:20:02;19.63;;;13.10;;
28958;SDS011;16066;0.000;0.000;2023-11-21T17:22:32;17.07;;;10.80;;
28958;SDS011;16066;0.000;0.000;2023-11-21T17:24:59;20.30;;;9.50;;
28958;SDS011;16066;0.000;0.000;2023-11-21T17:27:24;14.87;;;9.87;;
28958;SDS011;16066;0.000;0.000;2023-11-21T17:29:50;14.63;;;8.03;;
28958;SDS011;16066;0.000;0.000;2023-11-21T17:32:16;13.73;;;8.60;;
28958;SDS011;16066;0.000;0.000;2023-11-21T17:34:41;11.87;;;7.83;;
28958;SDS011;16066;0.000;0.000;2023-11-21T17:37:07;16.50;;;8.83;;
28958;SDS011;16066;0.000;0.000;2023-11-21T17:39:32;13.70;;;7.30;;
28958;SDS011;16066;0.000;0.000;2023-11-21T17:41:59;13.07;;;6.93;;
28958;SDS011;16066;0.000;0.000;2023-11-21T17:44:26;12.23;;;8.03;;
28958;SDS011;16066;0.000;0.000;2023-11-21T17:46:52;9.17;;;6.80;;
28958;SDS011;16066;0.000;0.000;2023-11-21T17:49:17;9.83;;;7.60;;
28958;SDS011;16066;0.000;0.000;2023-11-21T17:51:43;10.37;;;7.27;;
28958;SDS011;16066;0.000;0.000;2023-11-21T17:54:08;9.00;;;7.07;;
28958;SDS011;16066;0.000;0.000;2023-11-21T17:56:34;10.50;;;6.80;;
28958;SDS011;16066;0.000;0.000;2023-11-21T17:59:00;19.70;;;7.20;;
28958;SDS011;16066;0.000;0.000;2023-11-21T18:01:27;11.27;;;6.80;;
28958;SDS011;16066;0.000;0.000;2023-11-21T18:03:58;10.27;;;6.10;;
28958;SDS011;16066;0.000;0.000;2023-11-21T18:06:24;8.70;;;6.90;;
28958;SDS011;16066;0.000;0.000;2023-11-21T18:08:50;6.97;;;5.90;;
28958;SDS011;16066;0.000;0.000;2023-11-21T18:11:16;9.77;;;7.20;;
28958;SDS011;16066;0.000;0.000;2023-11-21T18:13:41;14.87;;;6.20;;
28958;SDS011;16066;0.000;0.000;2023-11-21T18:16:07;8.40;;;6.10;;
28958;SDS011;16066;0.000;0.000;2023-11-21T18:18:32;10.63;;;6.50;;
28958;SDS011;16066;0.000;0.000;2023-11-21T18:20:58;11.37;;;6.67;;
28958;SDS011;16066;0.000;0.000;2023-11-21T18:23:25;10.97;;;6.50;;
28958;SDS011;16066;0.000;0.000;2023-11-21T18:25:51;8.43;;;5.60;;
28958;SDS011;16066;0.000;0.000;2023-11-21T18:28:16;11.13;;;6.00;;
28958;SDS011;16066;0.000;0.000;2023-11-21T18:30:42;8.63;;;6.37;;
28958;SDS011;16066;0.000;0.000;2023-11-21T18:33:08;11.03;;;6.17;;
28958;SDS011;16066;0.000;0.000;2023-11-21T18:35:35;9.63;;;5.70;;
28958;SDS011;16066;0.000;0.000;2023-11-21T18:38:00;7.47;;;5.00;;
28958;SDS011;16066;0.000;0.000;2023-11-21T18:40:27;6.03;;;5.40;;
28958;SDS011;16066;0.000;0.000;2023-11-21T18:42:54;6.60;;;5.33;;
28958;SDS011;16066;0.000;0.000;2023-11-21T18:45:19;13.80;;;5.87;;
28958;SDS011;16066;0.000;0.000;2023-11-21T18:47:45;17.43;;;7.03;;
28958;SDS011;16066;0.000;0.000;2023-11-21T18:50:12;26.17;;;6.57;;
28958;SDS011;16066;0.000;0.000;2023-11-21T18:52:42;17.20;;;7.53;;
28958;SDS011;16066;0.000;0.000;2023-11-21T18:55:07;17.20;;;7.70;;
28958;SDS011;16066;0.000;0.000;2023-11-21T18:57:33;16.77;;;7.30;;
28958;SDS011;16066;0.000;0.000;2023-11-21T18:59:59;18.10;;;7.90;;
28958;SDS011;16066;0.000;0.000;2023-11-21T19:02:24;22.23;;;7.00;;
28958;SDS011;16066;0.000;0.000;2023-11-21T19:04:50;18.77;;;7.87;;
28958;SDS011;16066;0.000;0.000;2023-11-21T19:07:16;16.60;;;7.20;;
28958;SDS011;16066;0.000;0.000;2023-11-21T19:09:43;22.10;;;7.67;;
28958;SDS011;16066;0.000;0.000;2023-11-21T19:12:09;15.87;;;7.13;;
28958;SDS011;16066;0.000;0.000;2023-11-21T19:14:38;17.43;;;7.30;;
28958;SDS011;16066;0.000;0.000;2023-11-21T19:17:03;12.40;;;6.77;;
28958;SDS011;16066;0.000;0.000;2023-11-21T19:19:29;12.60;;;7.33;;
28958;SDS011;16066;0.000;0.000;2023-11-21T19:21:55;15.93;;;6.97;;
28958;SDS011;16066;0.000;0.000;2023-11-21T19:24:21;15.00;;;7.57;;
28958;SDS011;16066;0.000;0.000;2023-11-21T19:26:46;13.03;;;7.50;;
28958;SDS011;16066;0.000;0.000;2023-11-21T19:29:12;14.63;;;7.27;;
28958;SDS011;16066;0.000;0.000;2023-11-21T19:31:37;17.47;;;7.97;;
28958;SDS011;16066;0.000;0.000;2023-11-21T19:34:03;15.97;;;8.50;;
28958;SDS011;16066;0.000;0.000;2023-11-21T19:36:29;14.77;;;7.00;;
28958;SDS011;16066;0.000;0.000;2023-11-21T19:38:55;13.47;;;8.50;;
28958;SDS011;16066;0.000;0.000;2023-11-21T19:41:21;13.73;;;6.83;;
28958;SDS011;16066;0.000;0.000;2023-11-21T19:43:48;12.03;;;7.40;;
28958;SDS011;16066;0.000;0.000;2023-11-21T19:46:14;13.20;;;7.97;;
28958;SDS011;16066;0.000;0.000;2023-11-21T19:48:40;17.83;;;7.77;;
28958;SDS011;16066;0.000;0.000;2023-11-21T19:51:07;16.60;;;8.80;;
28958;SDS011;16066;0.000;0.000;2023-11-21T19:53:39;14.83;;;8.10;;
28958;SDS011;16066;0.000;0.000;2023-11-21T19:56:04;14.53;;;8.50;;
28958;SDS011;16066;0.000;0.000;2023-11-21T19:58:34;15.87;;;7.73;;
28958;SDS011;16066;0.000;0.000;2023-11-21T20:01:00;14.93;;;8.83;;
28958;SDS011;16066;0.000;0.000;2023-11-21T20:03:26;19.47;;;8.30;;
28958;SDS011;16066;0.000;0.000;2023-11-21T20:05:52;11.50;;;7.10;;
28958;SDS011;16066;0.000;0.000;2023-11-21T20:08:18;12.20;;;7.60;;
28958;SDS011;16066;0.000;0.000;2023-11-21T20:10:44;12.07;;;7.90;;
28958;SDS011;16066;0.000;0.000;2023-11-21T20:13:11;12.00;;;6.83;;
28958;SDS011;16066;0.000;0.000;2023-11-21T20:15:40;10.57;;;6.67;;
28958;SDS011;16066;0.000;0.000;2023-11-21T20:18:07;16.03;;;9.10;;
28958;SDS011;16066;0.000;0.000;2023-11-21T20:20:35;15.87;;;7.27;;
28958;SDS011;16066;0.000;0.000;2023-11-21T20:23:01;11.63;;;7.80;;
28958;SDS011;16066;0.000;0.000;2023-11-21T20:25:27;13.87;;;8.43;;
28958;SDS011;16066;0.000;0.000;2023-11-21T20:27:54;10.73;;;7.07;;
28958;SDS011;16066;0.000;0.000;2023-11-21T20:30:20;10.20;;;7.00;;
28958;SDS011;16066;0.000;0.000;2023-11-21T20:32:47;13.43;;;7.73;;
28958;SDS011;16066;0.000;0.000;2023-11-21T20:35:15;14.30;;;7.80;;
28958;SDS011;16066;0.000;0.000;2023-11-21T20:37:44;14.30;;;8.60;;
28958;SDS011;16066;0.000;0.000;2023-11-21T20:40:11;12.20;;;7.97;;
28958;SDS011;16066;0.000;0.000;2023-11-21T20:42:37;10.93;;;7.20;;
28958;SDS011;16066;0.000;0.000;2023-11-21T20:45:07;15.73;;;7.77;;
28958;SDS011;16066;0.000;0.000;2023-11-21T20:47:35;11.80;;;7.20;;
28958;SDS011;16066;0.000;0.000;2023-11-21T20:50:01;13.70;;;8.03;;
28958;SDS011;16066;0.000;0.000;2023-11-21T20:52:28;10.73;;;7.10;;
28958;SDS011;16066;0.000;0.000;2023-11-21T20:54:53;12.23;;;7.43;;
28958;SDS011;16066;0.000;0.000;2023-11-21T20:57:20;11.83;;;7.77;;
28958;SDS011;16066;0.000;0.000;2023-11-21T20:59:46;10.50;;;7.30;;
28958;SDS011;16066;0.000;0.000;2023-11-21T21:02:13;10.30;;;7.00;;
28958;SDS011;16066;0.000;0.000;2023-11-21T21:04:39;17.87;;;10.20;;
28958;SDS011;16066;0.000;0.000;2023-11-21T21:07:05;13.97;;;7.90;;
28958;SDS011;16066;0.000;0.000;2023-11-21T21:09:31;12.13;;;8.63;;
28958;SDS011;16066;0.000;0.000;2023-11-21T21:11:57;14.30;;;7.97;;
28958;SDS011;16066;0.000;0.000;2023-11-21T21:14:23;10.70;;;8.10;;
28958;SDS011;16066;0.000;0.000;2023-11-21T21:16:51;14.80;;;9.33;;
28958;SDS011;16066;0.000;0.000;2023-11-21T21:19:17;11.03;;;7.47;;
28958;SDS011;16066;0.000;0.000;2023-11-21T21:21:43;17.20;;;7.87;;
28958;SDS011;16066;0.000;0.000;2023-11-21T21:24:09;13.70;;;7.97;;
28958;SDS011;16066;0.000;0.000;2023-11-21T21:26:34;15.07;;;8.70;;
28958;SDS011;16066;0.000;0.000;2023-11-21T21:29:00;14.53;;;7.93;;
28958;SDS011;16066;0.000;0.000;2023-11-21T21:31:26;17.80;;;8.67;;